Pagrindinis puslapis
METAR-TAF:

METAR-TAF

Oro uostai :

Šendženas, Kinija

platuma: 22-33N, ilguma: 114-06E, Aukštis: 18 m

Dabartinis oras

Ataskaita buvo paskelbta 21 minutes, ne 09:00 UTC
Vėjas 6 kt iš Pietų/Pietvakarių
Temperatūra 21°C
Drėgmė 83%
Slėgis 1018 hPa
Matomumas 10 km arba daugiau
Su prošvaistėmis ne aukštis 5000 ft

METAR: ZGSZ 240900Z 21003MPS 9999 BKN050 21/18 Q1018 NOSIG

Laikas: 17:21 (09:21 UTC)

Prognozė

Ataskaita buvo paskelbta 6 valandos ir 9 minutes, ne 03:12 UTC
Prognozė galioja nuo 24 metu 06 UTC su 25 metu 06 UTC
Vėjas 8 kt iš Pietų
Matomumas: 8000 m
Mažai debesys ne aukštis 4000 ft
Tapsmas
nuo 24 metu 10 UTC su 24 metu 12 UTC
Vėjas 8 kt iš Rytų/Pietryčių

TAF: ZGSZ 240312Z 2406/2506 18004MPS 8000 FEW040 TX27/2406Z TN20/2422Z BECMG 2410/2412 11004MPS

Orai ataskaitas ir orų prognozės (METAR, TAF).

turimą stotys yra geltonos ir raudonos taškus žemėlapyje.

Perkelti pele per norėdami pamatyti stoties vardą.

Tada spustelėkite, norėdami matyti oro stebėjimo ir prognozės.

Norėdami pakeisti žemėlapį: spustelėkite ant žalios mygtukų su juodo kryžiaus žemyn,; žalią mygtuką su brūkšneliu, jei norite nutolinti; arba žalių rodyklių gretimoms žemėlapius.


METAR-TAF: